createdAt,value
2022-09-21T00:01:14.311Z,9.88
2022-09-21T00:03:42.152Z,9.89
2022-09-21T00:06:11.650Z,9.88
2022-09-21T00:08:38.200Z,9.88
2022-09-21T00:11:05.652Z,9.78
2022-09-21T00:13:33.637Z,9.82
2022-09-21T00:16:00.454Z,9.82
2022-09-21T00:18:27.105Z,9.79
2022-09-21T00:20:53.587Z,9.74
2022-09-21T00:23:20.510Z,9.69
2022-09-21T00:25:47.050Z,9.71
2022-09-21T00:28:13.477Z,9.70
2022-09-21T00:30:39.985Z,9.68
2022-09-21T00:33:06.922Z,9.60
2022-09-21T00:35:34.063Z,9.46
2022-09-21T00:38:02.378Z,9.55
2022-09-21T00:40:29.908Z,9.57
2022-09-21T00:43:16.378Z,9.47
2022-09-21T00:45:46.206Z,9.37
2022-09-21T00:48:12.768Z,9.37
2022-09-21T00:50:46.041Z,9.32
2022-09-21T00:53:13.645Z,9.41
2022-09-21T00:55:48.361Z,9.40
2022-09-21T00:58:22.519Z,9.32
2022-09-21T01:00:50.091Z,9.35
2022-09-21T01:03:17.273Z,9.26
2022-09-21T01:05:44.404Z,9.26
2022-09-21T01:08:13.847Z,9.19
2022-09-21T01:11:08.311Z,9.25
2022-09-21T01:13:48.472Z,9.10
2022-09-21T01:16:43.322Z,9.08
2022-09-21T01:19:41.558Z,9.12
2022-09-21T01:22:22.356Z,9.10
2022-09-21T01:24:51.980Z,9.13
2022-09-21T01:27:48.010Z,9.12
2022-09-21T01:30:20.215Z,9.11
2022-09-21T01:33:09.104Z,9.07
2022-09-21T01:35:44.834Z,9.04
2022-09-21T01:38:20.859Z,8.93
2022-09-21T01:40:52.453Z,8.97
2022-09-21T01:43:25.352Z,9.00
2022-09-21T01:45:54.857Z,9.01
2022-09-21T01:48:24.572Z,8.99
2022-09-21T01:50:55.573Z,8.94
2022-09-21T01:53:39.658Z,8.85
2022-09-21T01:56:15.942Z,8.86
2022-09-21T01:58:49.704Z,8.83
2022-09-21T02:01:20.973Z,8.83
2022-09-21T02:03:51.987Z,8.81
2022-09-21T02:06:19.342Z,8.79
2022-09-21T02:08:46.936Z,8.79
2022-09-21T02:11:13.959Z,8.82
2022-09-21T02:13:45.857Z,8.82
2022-09-21T02:16:36.458Z,8.79
2022-09-21T02:19:07.582Z,8.79
2022-09-21T02:21:51.917Z,8.75
2022-09-21T02:24:33.408Z,8.76
2022-09-21T02:27:04.086Z,8.66
2022-09-21T02:29:51.477Z,8.66
2022-09-21T02:32:24.342Z,8.67
2022-09-21T02:34:57.595Z,8.65
2022-09-21T02:37:32.788Z,8.63
2022-09-21T02:40:24.880Z,8.59
2022-09-21T02:43:15.410Z,8.56
2022-09-21T02:45:48.096Z,8.56
2022-09-21T02:48:18.295Z,8.53
2022-09-21T02:50:47.613Z,8.52
2022-09-21T02:53:17.155Z,8.48
2022-09-21T02:55:45.427Z,8.45
2022-09-21T02:58:16.076Z,8.41
2022-09-21T03:00:42.602Z,8.37
2022-09-21T03:03:21.203Z,8.33
2022-09-21T03:05:51.077Z,8.33
2022-09-21T03:08:18.412Z,8.29
2022-09-21T03:10:46.147Z,8.32
2022-09-21T03:13:13.096Z,8.28
2022-09-21T03:15:41.033Z,8.35
2022-09-21T03:18:10.047Z,8.35
2022-09-21T03:20:37.781Z,8.23
2022-09-21T03:23:04.452Z,8.31
2022-09-21T03:25:31.315Z,8.29
2022-09-21T03:27:58.521Z,8.27
2022-09-21T03:30:27.209Z,8.27
2022-09-21T03:32:54.304Z,8.24
2022-09-21T03:35:22.169Z,8.22
2022-09-21T03:37:50.956Z,8.13
2022-09-21T03:40:17.912Z,8.12
2022-09-21T03:42:45.150Z,8.11
2022-09-21T03:45:12.869Z,8.10
2022-09-21T03:47:39.907Z,8.05
2022-09-21T03:50:10.033Z,8.13
2022-09-21T03:52:38.465Z,8.09
2022-09-21T03:55:09.226Z,8.07
2022-09-21T03:57:36.948Z,8.08
2022-09-21T04:00:09.511Z,8.09
2022-09-21T04:02:42.193Z,7.99
2022-09-21T04:05:11.137Z,8.00
2022-09-21T04:07:37.978Z,8.00
2022-09-21T04:10:06.624Z,8.01
2022-09-21T04:12:35.000Z,7.93
2022-09-21T04:15:01.962Z,8.00
2022-09-21T04:17:29.341Z,8.01
2022-09-21T04:19:55.787Z,7.94
2022-09-21T04:22:24.793Z,7.94
2022-09-21T04:24:51.580Z,7.93
2022-09-21T04:27:18.477Z,7.91
2022-09-21T04:29:44.919Z,7.92
2022-09-21T04:32:12.039Z,7.91
2022-09-21T04:34:39.471Z,7.88
2022-09-21T04:37:09.783Z,7.81
2022-09-21T04:39:36.489Z,7.87
2022-09-21T04:42:03.046Z,7.78
2022-09-21T04:44:30.171Z,7.70
2022-09-21T04:46:58.194Z,7.71
2022-09-21T04:49:25.047Z,7.71
2022-09-21T04:51:52.089Z,7.74
2022-09-21T04:54:18.670Z,7.73
2022-09-21T04:56:45.187Z,7.79
2022-09-21T04:59:11.665Z,7.77
2022-09-21T05:01:38.212Z,7.75
2022-09-21T05:04:04.768Z,7.74
2022-09-21T05:06:33.042Z,7.68
2022-09-21T05:09:18.380Z,7.64
2022-09-21T05:11:45.678Z,7.68
2022-09-21T05:14:12.591Z,7.65
2022-09-21T05:16:39.011Z,7.68
2022-09-21T05:19:05.568Z,7.68
2022-09-21T05:21:32.147Z,7.62
2022-09-21T05:23:58.713Z,7.62
2022-09-21T05:26:25.562Z,7.58
2022-09-21T05:28:52.468Z,7.54
2022-09-21T05:31:51.257Z,7.53
2022-09-21T05:34:38.770Z,7.57
2022-09-21T05:37:12.068Z,7.60
2022-09-21T05:39:38.975Z,7.63
2022-09-21T05:42:06.075Z,7.64
2022-09-21T05:44:32.737Z,7.68
2022-09-21T05:47:17.227Z,7.66
2022-09-21T05:49:52.731Z,7.54
2022-09-21T05:52:25.257Z,7.52
2022-09-21T05:55:29.887Z,7.58
2022-09-21T05:58:10.323Z,7.57
2022-09-21T06:00:57.188Z,7.50
2022-09-21T06:03:29.189Z,7.45
2022-09-21T06:05:59.294Z,7.46
2022-09-21T06:08:26.739Z,7.59
2022-09-21T06:10:54.791Z,7.72
2022-09-21T06:13:21.346Z,7.78
2022-09-21T06:15:47.879Z,7.77
2022-09-21T06:18:17.793Z,7.95
2022-09-21T06:20:45.047Z,8.01
2022-09-21T06:23:13.247Z,8.03
2022-09-21T06:25:40.120Z,8.01
2022-09-21T06:28:10.164Z,8.07
2022-09-21T06:30:37.803Z,8.11
2022-09-21T06:33:08.341Z,8.09
2022-09-21T06:35:36.246Z,8.23
2022-09-21T06:38:07.839Z,8.31
2022-09-21T06:40:37.315Z,8.40
2022-09-21T06:43:05.391Z,8.49
2022-09-21T06:45:32.370Z,8.58
2022-09-21T06:47:59.178Z,8.67
2022-09-21T06:50:25.705Z,8.77
2022-09-21T06:52:52.233Z,8.86
2022-09-21T06:55:18.758Z,8.93
2022-09-21T06:57:45.342Z,9.01
2022-09-21T07:00:13.870Z,9.10
2022-09-21T07:02:45.025Z,9.17
2022-09-21T07:05:12.341Z,9.22
2022-09-21T07:07:40.171Z,9.35
2022-09-21T07:10:12.111Z,9.44
2022-09-21T07:12:41.351Z,9.51
2022-09-21T07:15:09.179Z,9.58
2022-09-21T07:17:37.933Z,9.72
2022-09-21T07:20:06.340Z,9.83
2022-09-21T07:22:33.366Z,9.93
2022-09-21T07:25:00.005Z,10.03
2022-09-21T07:27:28.110Z,10.15
2022-09-21T07:29:54.702Z,10.25
2022-09-21T07:32:21.271Z,10.35
2022-09-21T07:34:48.266Z,10.45
2022-09-21T07:37:15.192Z,10.57
2022-09-21T07:39:41.773Z,10.69
2022-09-21T07:42:08.535Z,10.82
2022-09-21T07:44:34.968Z,10.94
2022-09-21T07:47:03.508Z,11.06
2022-09-21T07:49:30.180Z,11.18
2022-09-21T07:52:01.424Z,11.31
2022-09-21T07:54:29.485Z,11.42
2022-09-21T07:57:14.542Z,11.56
2022-09-21T07:59:41.008Z,11.71
2022-09-21T08:02:07.660Z,11.85
2022-09-21T08:04:34.263Z,11.98
2022-09-21T08:07:00.684Z,12.13
2022-09-21T08:09:27.104Z,12.26
2022-09-21T08:11:55.664Z,12.35
2022-09-21T08:14:26.062Z,12.54
2022-09-21T08:16:53.157Z,12.68
2022-09-21T08:19:20.369Z,12.81
2022-09-21T08:21:53.497Z,12.97
2022-09-21T08:24:22.950Z,13.12
2022-09-21T08:26:52.201Z,13.32
2022-09-21T08:29:18.996Z,13.48
2022-09-21T08:31:46.805Z,13.62
2022-09-21T08:34:14.204Z,13.72
2022-09-21T08:36:41.012Z,13.83
2022-09-21T08:39:08.834Z,14.01
2022-09-21T08:42:13.265Z,14.17
2022-09-21T08:45:01.855Z,14.33
2022-09-21T08:47:43.779Z,14.49
2022-09-21T08:50:32.050Z,14.62
2022-09-21T08:53:04.656Z,14.73
2022-09-21T08:55:31.415Z,14.81
2022-09-21T08:57:59.353Z,14.93
2022-09-21T09:00:26.145Z,15.04
2022-09-21T09:03:12.351Z,15.25
2022-09-21T09:06:01.574Z,15.45
2022-09-21T09:08:52.280Z,15.53
2022-09-21T09:11:54.327Z,15.69
2022-09-21T09:14:39.382Z,15.79
2022-09-21T09:17:24.276Z,15.94
2022-09-21T09:19:58.472Z,16.03
2022-09-21T09:22:40.177Z,16.13
2022-09-21T09:25:17.780Z,16.27
2022-09-21T09:27:48.229Z,16.46
2022-09-21T09:30:17.493Z,16.64
2022-09-21T09:32:56.613Z,16.75
2022-09-21T09:35:29.481Z,16.91
2022-09-21T09:38:23.593Z,17.04
2022-09-21T09:41:10.255Z,17.20
2022-09-21T09:43:53.447Z,17.36
2022-09-21T09:46:35.401Z,17.49
2022-09-21T09:49:20.197Z,17.27
2022-09-21T09:51:47.966Z,17.30
2022-09-21T09:54:17.322Z,17.30
2022-09-21T09:56:44.135Z,17.34
2022-09-21T09:59:19.291Z,17.59
2022-09-21T10:01:47.311Z,17.71
2022-09-21T10:04:17.417Z,17.72
2022-09-21T10:06:46.804Z,17.71
2022-09-21T10:09:32.927Z,17.64
2022-09-21T10:12:16.939Z,17.44
2022-09-21T10:14:51.362Z,17.14
2022-09-21T10:17:19.089Z,17.21
2022-09-21T10:19:46.421Z,17.08
2022-09-21T10:22:20.321Z,17.03
2022-09-21T10:24:51.465Z,17.05
2022-09-21T10:27:25.444Z,17.05
2022-09-21T10:29:52.003Z,17.12
2022-09-21T10:32:22.165Z,17.05
2022-09-21T10:35:13.067Z,16.97
2022-09-21T10:37:43.833Z,16.95
2022-09-21T10:40:19.347Z,16.97
2022-09-21T10:42:48.291Z,17.14
2022-09-21T10:45:26.952Z,17.20
2022-09-21T10:48:13.928Z,17.25
2022-09-21T10:50:42.643Z,17.36
2022-09-21T10:53:09.060Z,17.38
2022-09-21T10:55:44.072Z,17.44
2022-09-21T10:58:19.499Z,17.52
2022-09-21T11:00:51.889Z,17.59
2022-09-21T11:03:30.322Z,17.62
2022-09-21T11:06:03.283Z,17.67
2022-09-21T11:08:56.161Z,17.74
2022-09-21T11:11:55.632Z,17.74
2022-09-21T11:14:28.207Z,17.84
2022-09-21T11:17:12.607Z,17.90
2022-09-21T11:19:42.558Z,17.97
2022-09-21T11:22:42.806Z,18.05
2022-09-21T11:25:20.458Z,18.12
2022-09-21T11:28:13.880Z,18.18
2022-09-21T11:31:01.286Z,18.19
2022-09-21T11:33:39.988Z,18.18
2022-09-21T11:36:12.587Z,18.21
2022-09-21T11:39:16.968Z,18.20
2022-09-21T11:41:58.971Z,18.19
2022-09-21T11:44:53.135Z,18.15
2022-09-21T11:47:34.677Z,18.18
2022-09-21T11:50:33.661Z,18.11
2022-09-21T11:53:22.599Z,18.15
2022-09-21T11:56:11.765Z,18.17
2022-09-21T11:58:53.314Z,18.12
2022-09-21T12:01:38.019Z,18.16
2022-09-21T12:04:11.179Z,18.23
2022-09-21T12:06:56.398Z,18.29
2022-09-21T12:09:38.141Z,18.30
2022-09-21T12:12:16.655Z,18.39
2022-09-21T12:14:59.709Z,18.69
2022-09-21T12:17:35.119Z,19.45
2022-09-21T12:20:21.731Z,20.56
2022-09-21T12:22:50.101Z,21.59
2022-09-21T12:25:38.518Z,22.26
2022-09-21T12:28:18.238Z,23.19
2022-09-21T12:30:51.262Z,23.72
2022-09-21T12:33:31.125Z,24.46
2022-09-21T12:36:10.643Z,25.21
2022-09-21T12:38:46.246Z,25.92
2022-09-21T12:41:37.753Z,26.59
2022-09-21T12:44:15.402Z,27.06
2022-09-21T12:46:51.821Z,27.15
2022-09-21T12:49:29.773Z,26.15
2022-09-21T12:52:01.434Z,25.09
2022-09-21T12:54:46.832Z,25.05
2022-09-21T12:57:53.686Z,24.11
2022-09-21T13:00:22.158Z,23.44
2022-09-21T13:02:55.823Z,22.76
2022-09-21T13:05:28.260Z,22.31
2022-09-21T13:08:04.551Z,21.88
2022-09-21T13:10:49.237Z,21.34
2022-09-21T13:13:45.892Z,20.96
2022-09-21T13:16:31.222Z,20.89
2022-09-21T13:19:02.917Z,20.94
2022-09-21T13:21:31.224Z,20.91
2022-09-21T13:24:03.601Z,20.84
2022-09-21T13:27:06.871Z,20.93
2022-09-21T13:29:36.012Z,21.39
2022-09-21T13:32:11.468Z,22.13
2022-09-21T13:34:39.062Z,22.27
2022-09-21T13:37:19.491Z,22.18
2022-09-21T13:39:55.688Z,22.21
2022-09-21T13:42:37.003Z,22.68
2022-09-21T13:45:15.669Z,22.64
2022-09-21T13:47:45.294Z,22.57
2022-09-21T13:50:18.109Z,22.55
2022-09-21T13:52:52.031Z,22.45
2022-09-21T13:55:24.662Z,22.34
2022-09-21T13:57:55.796Z,22.20
2022-09-21T14:00:22.334Z,22.17
2022-09-21T14:02:49.089Z,22.34
2022-09-21T14:05:43.516Z,22.36
2022-09-21T14:08:16.221Z,22.24
2022-09-21T14:10:52.361Z,22.11
2022-09-21T14:13:39.121Z,22.21
2022-09-21T14:16:37.370Z,22.34
2022-09-21T14:19:26.719Z,22.20
2022-09-21T14:22:08.501Z,22.39
2022-09-21T14:24:36.183Z,22.80
2022-09-21T14:27:13.468Z,23.27
2022-09-21T14:29:53.028Z,23.77
2022-09-21T14:32:24.797Z,23.77
2022-09-21T14:34:57.088Z,23.56
2022-09-21T14:37:52.083Z,22.68
2022-09-21T14:40:28.902Z,22.03
2022-09-21T14:42:58.788Z,21.70
2022-09-21T14:45:46.137Z,21.35
2022-09-21T14:48:37.396Z,21.08
2022-09-21T14:51:17.101Z,20.89
2022-09-21T14:54:02.188Z,20.77
2022-09-21T14:56:56.801Z,20.56
2022-09-21T14:59:29.137Z,20.65
2022-09-21T15:02:00.029Z,21.09
2022-09-21T15:04:29.449Z,21.43
2022-09-21T15:07:26.772Z,21.89
2022-09-21T15:10:45.210Z,22.34
2022-09-21T15:13:23.944Z,22.58
2022-09-21T15:16:11.932Z,22.56
2022-09-21T15:18:42.489Z,22.46
2022-09-21T15:21:21.929Z,22.31
2022-09-21T15:23:51.414Z,22.19
2022-09-21T15:26:26.439Z,22.02
2022-09-21T15:29:09.646Z,21.91
2022-09-21T15:31:42.013Z,21.72
2022-09-21T15:34:13.117Z,21.60
2022-09-21T15:36:42.157Z,21.50
2022-09-21T15:39:27.794Z,21.25
2022-09-21T15:42:09.502Z,21.16
2022-09-21T15:44:37.976Z,21.02
2022-09-21T15:47:08.473Z,20.94
2022-09-21T15:49:36.227Z,20.78
2022-09-21T15:52:12.863Z,20.63
2022-09-21T15:54:52.111Z,20.52
2022-09-21T15:57:28.483Z,20.35
2022-09-21T15:59:56.184Z,20.33
2022-09-21T16:02:26.828Z,20.21
2022-09-21T16:04:53.484Z,19.99
2022-09-21T16:07:35.557Z,19.92
2022-09-21T16:10:13.624Z,19.81
2022-09-21T16:12:41.405Z,19.71
2022-09-21T16:15:23.135Z,19.65
2022-09-21T16:18:05.119Z,19.49
2022-09-21T16:20:47.376Z,19.38
2022-09-21T16:23:17.361Z,19.23
2022-09-21T16:25:43.956Z,19.10
2022-09-21T16:28:16.322Z,18.92
2022-09-21T16:30:53.431Z,18.77
2022-09-21T16:33:41.119Z,18.66
2022-09-21T16:36:20.071Z,18.56
2022-09-21T16:38:55.665Z,18.44
2022-09-21T16:41:24.772Z,18.35
2022-09-21T16:43:52.059Z,18.27
2022-09-21T16:46:18.928Z,18.20
2022-09-21T16:48:45.451Z,18.08
2022-09-21T16:51:13.555Z,18.02
2022-09-21T16:53:40.165Z,17.90
2022-09-21T16:56:14.310Z,17.77
2022-09-21T16:58:43.071Z,17.65
2022-09-21T17:01:15.423Z,17.53
2022-09-21T17:03:42.466Z,17.48
2022-09-21T17:06:15.756Z,17.33
2022-09-21T17:08:42.307Z,17.28
2022-09-21T17:11:08.761Z,17.23
2022-09-21T17:13:35.301Z,17.16
2022-09-21T17:16:02.139Z,17.12
2022-09-21T17:18:29.151Z,17.02
2022-09-21T17:20:55.726Z,16.91
2022-09-21T17:23:27.559Z,16.79
2022-09-21T17:25:54.031Z,16.66
2022-09-21T17:28:26.101Z,16.55
2022-09-21T17:30:54.177Z,16.44
2022-09-21T17:33:21.462Z,16.35
2022-09-21T17:35:50.966Z,16.22
2022-09-21T17:38:18.158Z,16.10
2022-09-21T17:40:45.170Z,15.99
2022-09-21T17:43:29.640Z,15.88
2022-09-21T17:46:08.002Z,15.78
2022-09-21T17:48:35.683Z,15.65
2022-09-21T17:51:02.642Z,15.61
2022-09-21T17:53:37.342Z,15.50
2022-09-21T17:56:28.550Z,15.42
2022-09-21T17:59:02.784Z,15.31
2022-09-21T18:01:32.246Z,15.19
2022-09-21T18:03:58.946Z,15.10
2022-09-21T18:06:25.973Z,15.05
2022-09-21T18:08:53.787Z,14.98
2022-09-21T18:12:18.091Z,14.87
2022-09-21T18:14:57.561Z,14.79
2022-09-21T18:17:51.160Z,14.65
2022-09-21T18:20:47.715Z,14.60
2022-09-21T18:23:21.590Z,14.50
2022-09-21T18:25:52.860Z,14.39
2022-09-21T18:28:34.472Z,14.37
2022-09-21T18:31:18.991Z,14.29
2022-09-21T18:34:00.227Z,14.17
2022-09-21T18:36:48.557Z,14.12
2022-09-21T18:39:23.795Z,14.03
2022-09-21T18:42:22.839Z,13.96
2022-09-21T18:45:12.475Z,13.90
2022-09-21T18:47:44.329Z,13.81
2022-09-21T18:50:23.623Z,13.70
2022-09-21T18:52:54.104Z,13.71
2022-09-21T18:55:31.149Z,13.62
2022-09-21T18:57:59.785Z,13.55
2022-09-21T19:00:31.785Z,13.50
2022-09-21T19:03:17.096Z,13.46
2022-09-21T19:06:12.796Z,13.38
2022-09-21T19:08:48.650Z,13.29
2022-09-21T19:11:44.281Z,13.25
2022-09-21T19:14:28.352Z,13.18
2022-09-21T19:17:13.743Z,13.14
2022-09-21T19:19:49.444Z,13.14
2022-09-21T19:22:24.523Z,13.13
2022-09-21T19:25:07.958Z,13.08
2022-09-21T19:27:39.808Z,13.01
2022-09-21T19:30:09.429Z,12.96
2022-09-21T19:32:49.442Z,12.86
2022-09-21T19:35:30.035Z,12.83
2022-09-21T19:37:59.597Z,12.79
2022-09-21T19:40:32.416Z,12.77
2022-09-21T19:43:08.135Z,12.70
2022-09-21T19:45:56.112Z,12.68
2022-09-21T19:48:27.164Z,12.67
2022-09-21T19:50:57.153Z,12.63
2022-09-21T19:53:42.784Z,12.56
2022-09-21T19:56:31.668Z,12.55
2022-09-21T19:59:17.205Z,12.47
2022-09-21T20:02:01.235Z,12.38
2022-09-21T20:04:40.622Z,12.39
2022-09-21T20:07:30.001Z,12.30
2022-09-21T20:10:24.715Z,12.30
2022-09-21T20:13:23.807Z,12.27
2022-09-21T20:15:57.052Z,12.18
2022-09-21T20:18:32.371Z,12.14
2022-09-21T20:20:58.815Z,12.12
2022-09-21T20:23:25.606Z,12.08
2022-09-21T20:26:05.148Z,12.03
2022-09-21T20:28:31.853Z,12.02
2022-09-21T20:30:58.440Z,11.94
2022-09-21T20:33:26.890Z,11.90
2022-09-21T20:35:55.351Z,11.89
2022-09-21T20:38:22.566Z,11.78
2022-09-21T20:40:49.598Z,11.76
2022-09-21T20:43:16.181Z,11.72
2022-09-21T20:45:47.683Z,11.72
2022-09-21T20:48:14.345Z,11.72
2022-09-21T20:50:42.586Z,11.61
2022-09-21T20:53:09.791Z,11.68
2022-09-21T20:55:37.050Z,11.66
2022-09-21T20:58:03.530Z,11.60
2022-09-21T21:00:30.547Z,11.58
2022-09-21T21:03:01.386Z,11.58
2022-09-21T21:05:29.176Z,11.52
2022-09-21T21:07:56.541Z,11.44
2022-09-21T21:10:23.605Z,11.40
2022-09-21T21:12:50.566Z,11.35
2022-09-21T21:15:17.441Z,11.38
2022-09-21T21:17:43.882Z,11.33
2022-09-21T21:20:10.819Z,11.32
2022-09-21T21:22:37.527Z,11.23
2022-09-21T21:25:04.511Z,11.25
2022-09-21T21:27:31.453Z,11.27
2022-09-21T21:29:58.492Z,11.24
2022-09-21T21:32:26.491Z,11.23
2022-09-21T21:34:54.103Z,11.20
2022-09-21T21:37:24.899Z,11.21
2022-09-21T21:39:52.393Z,11.17
2022-09-21T21:42:20.634Z,11.14
2022-09-21T21:44:48.140Z,11.09
2022-09-21T21:47:38.241Z,11.06
2022-09-21T21:50:01.364Z,11.02
2022-09-21T21:52:27.773Z,10.98
2022-09-21T21:54:54.647Z,10.98
2022-09-21T21:57:21.097Z,10.96
2022-09-21T21:59:47.652Z,10.88
2022-09-21T22:02:15.352Z,10.85
2022-09-21T22:04:42.224Z,10.82
2022-09-21T22:07:08.670Z,10.75
2022-09-21T22:09:35.192Z,10.77
2022-09-21T22:12:02.471Z,10.73
2022-09-21T22:14:29.020Z,10.68
2022-09-21T22:16:55.663Z,10.62
2022-09-21T22:19:22.170Z,10.58
2022-09-21T22:21:53.868Z,10.57
2022-09-21T22:24:21.547Z,10.54
2022-09-21T22:26:51.515Z,10.52
2022-09-21T22:29:18.061Z,10.52
2022-09-21T22:31:47.071Z,10.51
2022-09-21T22:34:14.580Z,10.49
2022-09-21T22:36:43.313Z,10.43
2022-09-21T22:39:10.184Z,10.44
2022-09-21T22:41:39.238Z,10.39
2022-09-21T22:44:06.461Z,10.39
2022-09-21T22:46:33.673Z,10.37
2022-09-21T22:49:00.670Z,10.36
2022-09-21T22:51:29.221Z,10.33
2022-09-21T22:53:56.503Z,10.27
2022-09-21T22:56:25.793Z,10.26
2022-09-21T22:58:54.906Z,10.24
2022-09-21T23:01:29.664Z,10.22
2022-09-21T23:04:01.267Z,10.22
2022-09-21T23:06:32.517Z,10.14
2022-09-21T23:09:00.042Z,10.12
2022-09-21T23:11:29.486Z,10.10
2022-09-21T23:13:57.473Z,10.01
2022-09-21T23:16:25.409Z,10.00
2022-09-21T23:18:52.321Z,9.97
2022-09-21T23:21:22.869Z,10.00
2022-09-21T23:23:49.798Z,9.97
2022-09-21T23:26:26.289Z,9.96
2022-09-21T23:28:55.445Z,9.96
2022-09-21T23:31:23.143Z,9.92
2022-09-21T23:33:51.550Z,9.97
2022-09-21T23:36:21.080Z,9.92
2022-09-21T23:38:48.480Z,9.94
2022-09-21T23:41:20.556Z,9.93
2022-09-21T23:43:47.808Z,9.82
2022-09-21T23:46:19.835Z,9.86
2022-09-21T23:48:46.874Z,9.79
2022-09-21T23:51:13.893Z,9.80
2022-09-21T23:53:41.030Z,9.72
2022-09-21T23:56:09.114Z,9.64
2022-09-21T23:58:35.540Z,9.62
